sensor_id;sensor_type;location;lat;lon;timestamp;P1;durP1;ratioP1;P2;durP2;ratioP2
19384;SDS011;9828;54.122;17.974;2024-02-28T00:01:37;23.80;;;12.67;;
19384;SDS011;9828;54.122;17.974;2024-02-28T00:06:59;20.50;;;11.67;;
19384;SDS011;9828;54.122;17.974;2024-02-28T00:12:21;19.90;;;11.07;;
19384;SDS011;9828;54.122;17.974;2024-02-28T00:17:42;17.20;;;10.10;;
19384;SDS011;9828;54.122;17.974;2024-02-28T00:23:04;14.07;;;9.17;;
19384;SDS011;9828;54.122;17.974;2024-02-28T00:28:25;14.33;;;9.17;;
19384;SDS011;9828;54.122;17.974;2024-02-28T00:33:47;16.57;;;9.03;;
19384;SDS011;9828;54.122;17.974;2024-02-28T00:39:10;12.63;;;9.07;;
19384;SDS011;9828;54.122;17.974;2024-02-28T00:44:34;14.23;;;9.03;;
19384;SDS011;9828;54.122;17.974;2024-02-28T00:49:55;15.13;;;9.03;;
19384;SDS011;9828;54.122;17.974;2024-02-28T00:55:17;15.80;;;9.20;;
19384;SDS011;9828;54.122;17.974;2024-02-28T01:00:41;16.97;;;10.63;;
19384;SDS011;9828;54.122;17.974;2024-02-28T01:06:03;13.33;;;8.43;;
19384;SDS011;9828;54.122;17.974;2024-02-28T01:11:25;13.37;;;8.40;;
19384;SDS011;9828;54.122;17.974;2024-02-28T01:16:48;15.77;;;9.20;;
19384;SDS011;9828;54.122;17.974;2024-02-28T01:22:12;13.43;;;9.20;;
19384;SDS011;9828;54.122;17.974;2024-02-28T01:27:36;12.33;;;8.27;;
19384;SDS011;9828;54.122;17.974;2024-02-28T01:32:58;12.23;;;8.67;;
19384;SDS011;9828;54.122;17.974;2024-02-28T01:38:20;15.50;;;10.47;;
19384;SDS011;9828;54.122;17.974;2024-02-28T01:43:42;12.97;;;9.47;;
19384;SDS011;9828;54.122;17.974;2024-02-28T01:49:05;14.10;;;8.97;;
19384;SDS011;9828;54.122;17.974;2024-02-28T01:54:27;10.30;;;7.10;;
19384;SDS011;9828;54.122;17.974;2024-02-28T01:59:50;11.03;;;7.07;;
19384;SDS011;9828;54.122;17.974;2024-02-28T02:05:12;10.37;;;7.50;;
19384;SDS011;9828;54.122;17.974;2024-02-28T02:10:36;9.70;;;6.47;;
19384;SDS011;9828;54.122;17.974;2024-02-28T02:15:57;11.10;;;7.30;;
19384;SDS011;9828;54.122;17.974;2024-02-28T02:21:26;11.43;;;7.40;;
19384;SDS011;9828;54.122;17.974;2024-02-28T02:26:57;11.27;;;7.33;;
19384;SDS011;9828;54.122;17.974;2024-02-28T02:32:20;12.80;;;7.83;;
19384;SDS011;9828;54.122;17.974;2024-02-28T02:37:45;12.97;;;7.43;;
19384;SDS011;9828;54.122;17.974;2024-02-28T02:43:08;10.70;;;6.70;;
19384;SDS011;9828;54.122;17.974;2024-02-28T02:48:30;9.47;;;6.90;;
19384;SDS011;9828;54.122;17.974;2024-02-28T02:53:54;9.20;;;6.27;;
19384;SDS011;9828;54.122;17.974;2024-02-28T02:59:16;11.07;;;7.07;;
19384;SDS011;9828;54.122;17.974;2024-02-28T03:04:38;10.20;;;7.13;;
19384;SDS011;9828;54.122;17.974;2024-02-28T03:10:00;10.37;;;7.93;;
19384;SDS011;9828;54.122;17.974;2024-02-28T03:15:22;12.40;;;8.03;;
19384;SDS011;9828;54.122;17.974;2024-02-28T03:20:44;10.93;;;7.37;;
19384;SDS011;9828;54.122;17.974;2024-02-28T03:26:05;14.27;;;8.43;;
19384;SDS011;9828;54.122;17.974;2024-02-28T03:31:29;12.63;;;7.40;;
19384;SDS011;9828;54.122;17.974;2024-02-28T03:36:53;11.30;;;7.17;;
19384;SDS011;9828;54.122;17.974;2024-02-28T03:42:16;11.63;;;7.13;;
19384;SDS011;9828;54.122;17.974;2024-02-28T03:47:37;11.03;;;7.50;;
19384;SDS011;9828;54.122;17.974;2024-02-28T03:53:00;12.83;;;7.00;;
19384;SDS011;9828;54.122;17.974;2024-02-28T03:58:23;20.10;;;10.07;;
19384;SDS011;9828;54.122;17.974;2024-02-28T04:03:44;15.90;;;10.33;;
19384;SDS011;9828;54.122;17.974;2024-02-28T04:09:06;13.43;;;9.27;;
19384;SDS011;9828;54.122;17.974;2024-02-28T04:14:28;15.93;;;9.60;;
19384;SDS011;9828;54.122;17.974;2024-02-28T04:19:50;14.10;;;9.17;;
19384;SDS011;9828;54.122;17.974;2024-02-28T04:25:11;14.53;;;9.40;;
19384;SDS011;9828;54.122;17.974;2024-02-28T04:30:33;12.53;;;8.67;;
19384;SDS011;9828;54.122;17.974;2024-02-28T04:35:54;10.53;;;7.40;;
19384;SDS011;9828;54.122;17.974;2024-02-28T04:41:16;16.03;;;9.57;;
19384;SDS011;9828;54.122;17.974;2024-02-28T04:46:42;9.07;;;7.53;;
19384;SDS011;9828;54.122;17.974;2024-02-28T04:52:03;11.27;;;7.80;;
19384;SDS011;9828;54.122;17.974;2024-02-28T04:57:25;17.70;;;11.73;;
19384;SDS011;9828;54.122;17.974;2024-02-28T05:02:46;16.80;;;11.27;;
19384;SDS011;9828;54.122;17.974;2024-02-28T05:08:08;13.00;;;9.00;;
19384;SDS011;9828;54.122;17.974;2024-02-28T05:13:32;18.57;;;12.50;;
19384;SDS011;9828;54.122;17.974;2024-02-28T05:18:54;20.67;;;12.90;;
19384;SDS011;9828;54.122;17.974;2024-02-28T05:24:16;33.47;;;20.70;;
19384;SDS011;9828;54.122;17.974;2024-02-28T05:29:38;53.30;;;31.90;;
19384;SDS011;9828;54.122;17.974;2024-02-28T05:35:02;35.53;;;21.30;;
19384;SDS011;9828;54.122;17.974;2024-02-28T05:40:24;19.13;;;12.87;;
19384;SDS011;9828;54.122;17.974;2024-02-28T05:45:45;22.53;;;13.93;;
19384;SDS011;9828;54.122;17.974;2024-02-28T05:51:07;18.07;;;12.57;;
19384;SDS011;9828;54.122;17.974;2024-02-28T05:56:29;20.10;;;11.70;;
19384;SDS011;9828;54.122;17.974;2024-02-28T06:01:53;19.00;;;11.50;;
19384;SDS011;9828;54.122;17.974;2024-02-28T06:07:15;19.57;;;13.37;;
19384;SDS011;9828;54.122;17.974;2024-02-28T06:12:37;22.30;;;14.07;;
19384;SDS011;9828;54.122;17.974;2024-02-28T06:17:58;18.63;;;10.77;;
19384;SDS011;9828;54.122;17.974;2024-02-28T06:23:21;17.77;;;10.80;;
19384;SDS011;9828;54.122;17.974;2024-02-28T06:28:44;14.83;;;9.73;;
19384;SDS011;9828;54.122;17.974;2024-02-28T06:34:09;19.43;;;12.43;;
19384;SDS011;9828;54.122;17.974;2024-02-28T06:39:32;20.13;;;12.57;;
19384;SDS011;9828;54.122;17.974;2024-02-28T06:44:54;29.93;;;16.67;;
19384;SDS011;9828;54.122;17.974;2024-02-28T06:50:16;25.30;;;14.13;;
19384;SDS011;9828;54.122;17.974;2024-02-28T06:55:37;24.73;;;13.87;;
19384;SDS011;9828;54.122;17.974;2024-02-28T07:00:59;18.23;;;12.40;;
19384;SDS011;9828;54.122;17.974;2024-02-28T07:06:22;21.57;;;11.73;;
19384;SDS011;9828;54.122;17.974;2024-02-28T07:11:43;32.30;;;17.33;;
19384;SDS011;9828;54.122;17.974;2024-02-28T07:17:05;33.47;;;18.97;;
19384;SDS011;9828;54.122;17.974;2024-02-28T07:22:27;37.07;;;19.37;;
19384;SDS011;9828;54.122;17.974;2024-02-28T07:27:49;40.80;;;19.30;;
19384;SDS011;9828;54.122;17.974;2024-02-28T07:33:11;28.60;;;16.70;;
19384;SDS011;9828;54.122;17.974;2024-02-28T07:38:32;27.90;;;15.20;;
19384;SDS011;9828;54.122;17.974;2024-02-28T07:43:54;74.97;;;43.17;;
19384;SDS011;9828;54.122;17.974;2024-02-28T07:49:16;142.60;;;83.13;;
19384;SDS011;9828;54.122;17.974;2024-02-28T07:54:38;51.67;;;33.47;;
19384;SDS011;9828;54.122;17.974;2024-02-28T08:00:00;32.67;;;20.80;;
19384;SDS011;9828;54.122;17.974;2024-02-28T08:05:31;23.00;;;14.57;;
19384;SDS011;9828;54.122;17.974;2024-02-28T08:10:58;17.37;;;11.07;;
19384;SDS011;9828;54.122;17.974;2024-02-28T08:16:19;21.87;;;12.43;;
19384;SDS011;9828;54.122;17.974;2024-02-28T08:21:41;21.20;;;12.97;;
19384;SDS011;9828;54.122;17.974;2024-02-28T08:27:04;30.80;;;17.53;;
19384;SDS011;9828;54.122;17.974;2024-02-28T08:32:26;43.73;;;25.20;;
19384;SDS011;9828;54.122;17.974;2024-02-28T08:37:49;95.77;;;43.47;;
19384;SDS011;9828;54.122;17.974;2024-02-28T08:43:10;102.57;;;46.50;;
19384;SDS011;9828;54.122;17.974;2024-02-28T08:48:32;161.53;;;69.30;;
19384;SDS011;9828;54.122;17.974;2024-02-28T08:53:54;123.93;;;55.77;;
19384;SDS011;9828;54.122;17.974;2024-02-28T08:59:16;53.43;;;28.23;;
19384;SDS011;9828;54.122;17.974;2024-02-28T09:04:38;41.63;;;27.03;;
19384;SDS011;9828;54.122;17.974;2024-02-28T09:09:59;32.63;;;19.27;;
19384;SDS011;9828;54.122;17.974;2024-02-28T09:15:21;27.97;;;15.77;;
19384;SDS011;9828;54.122;17.974;2024-02-28T09:20:44;41.63;;;19.37;;
19384;SDS011;9828;54.122;17.974;2024-02-28T09:26:06;32.13;;;16.40;;
19384;SDS011;9828;54.122;17.974;2024-02-28T09:31:29;38.10;;;19.13;;
19384;SDS011;9828;54.122;17.974;2024-02-28T09:36:51;38.73;;;20.10;;
19384;SDS011;9828;54.122;17.974;2024-02-28T09:42:13;45.63;;;20.93;;
19384;SDS011;9828;54.122;17.974;2024-02-28T09:47:35;40.13;;;19.93;;
19384;SDS011;9828;54.122;17.974;2024-02-28T09:52:57;48.23;;;25.17;;
19384;SDS011;9828;54.122;17.974;2024-02-28T09:58:21;55.57;;;26.33;;
19384;SDS011;9828;54.122;17.974;2024-02-28T10:03:44;49.97;;;23.73;;
19384;SDS011;9828;54.122;17.974;2024-02-28T10:09:06;39.33;;;21.93;;
19384;SDS011;9828;54.122;17.974;2024-02-28T10:14:28;40.33;;;18.83;;
19384;SDS011;9828;54.122;17.974;2024-02-28T10:19:51;21.17;;;12.50;;
19384;SDS011;9828;54.122;17.974;2024-02-28T10:25:13;31.73;;;14.47;;
19384;SDS011;9828;54.122;17.974;2024-02-28T10:30:41;29.07;;;15.97;;
19384;SDS011;9828;54.122;17.974;2024-02-28T10:36:03;27.67;;;14.43;;
19384;SDS011;9828;54.122;17.974;2024-02-28T10:41:26;18.47;;;10.50;;
19384;SDS011;9828;54.122;17.974;2024-02-28T10:46:50;17.07;;;9.50;;
19384;SDS011;9828;54.122;17.974;2024-02-28T10:52:12;21.20;;;10.03;;
19384;SDS011;9828;54.122;17.974;2024-02-28T10:57:35;16.63;;;8.90;;
19384;SDS011;9828;54.122;17.974;2024-02-28T11:02:57;18.93;;;10.23;;
19384;SDS011;9828;54.122;17.974;2024-02-28T11:08:21;18.73;;;10.17;;
19384;SDS011;9828;54.122;17.974;2024-02-28T11:13:51;17.20;;;10.40;;
19384;SDS011;9828;54.122;17.974;2024-02-28T11:19:22;19.07;;;10.53;;
19384;SDS011;9828;54.122;17.974;2024-02-28T11:24:44;25.50;;;10.97;;
19384;SDS011;9828;54.122;17.974;2024-02-28T11:30:05;14.93;;;8.97;;
19384;SDS011;9828;54.122;17.974;2024-02-28T11:35:27;16.43;;;9.53;;
19384;SDS011;9828;54.122;17.974;2024-02-28T11:40:49;15.07;;;8.97;;
19384;SDS011;9828;54.122;17.974;2024-02-28T11:46:11;12.80;;;8.17;;
19384;SDS011;9828;54.122;17.974;2024-02-28T11:51:33;20.70;;;10.23;;
19384;SDS011;9828;54.122;17.974;2024-02-28T11:56:55;18.73;;;10.23;;
19384;SDS011;9828;54.122;17.974;2024-02-28T12:02:16;13.13;;;8.10;;
19384;SDS011;9828;54.122;17.974;2024-02-28T12:07:38;16.03;;;10.27;;
19384;SDS011;9828;54.122;17.974;2024-02-28T12:13:01;16.87;;;9.57;;
19384;SDS011;9828;54.122;17.974;2024-02-28T12:18:25;13.03;;;8.23;;
19384;SDS011;9828;54.122;17.974;2024-02-28T12:23:49;14.03;;;10.17;;
19384;SDS011;9828;54.122;17.974;2024-02-28T12:29:11;13.30;;;8.37;;
19384;SDS011;9828;54.122;17.974;2024-02-28T12:34:33;12.17;;;8.17;;
19384;SDS011;9828;54.122;17.974;2024-02-28T12:39:54;10.53;;;7.77;;
19384;SDS011;9828;54.122;17.974;2024-02-28T12:45:16;9.93;;;7.80;;
19384;SDS011;9828;54.122;17.974;2024-02-28T12:50:39;9.40;;;6.90;;
19384;SDS011;9828;54.122;17.974;2024-02-28T12:56:02;13.40;;;8.43;;
19384;SDS011;9828;54.122;17.974;2024-02-28T13:01:25;10.73;;;8.03;;
19384;SDS011;9828;54.122;17.974;2024-02-28T13:06:46;31.53;;;12.53;;
19384;SDS011;9828;54.122;17.974;2024-02-28T13:12:08;18.27;;;9.43;;
19384;SDS011;9828;54.122;17.974;2024-02-28T13:17:30;43.80;;;14.03;;
19384;SDS011;9828;54.122;17.974;2024-02-28T13:22:51;45.67;;;15.43;;
19384;SDS011;9828;54.122;17.974;2024-02-28T13:28:13;38.67;;;15.10;;
19384;SDS011;9828;54.122;17.974;2024-02-28T13:33:36;42.03;;;15.37;;
19384;SDS011;9828;54.122;17.974;2024-02-28T13:38:59;38.60;;;26.97;;
19384;SDS011;9828;54.122;17.974;2024-02-28T13:44:20;33.90;;;22.27;;
19384;SDS011;9828;54.122;17.974;2024-02-28T13:49:44;30.60;;;12.40;;
19384;SDS011;9828;54.122;17.974;2024-02-28T13:55:06;19.27;;;9.97;;
19384;SDS011;9828;54.122;17.974;2024-02-28T14:00:29;14.33;;;8.43;;
19384;SDS011;9828;54.122;17.974;2024-02-28T14:05:51;19.47;;;11.40;;
19384;SDS011;9828;54.122;17.974;2024-02-28T14:11:13;27.07;;;11.87;;
19384;SDS011;9828;54.122;17.974;2024-02-28T14:16:54;30.03;;;14.60;;
19384;SDS011;9828;54.122;17.974;2024-02-28T14:22:16;17.23;;;11.03;;
19384;SDS011;9828;54.122;17.974;2024-02-28T14:27:37;20.40;;;9.97;;
19384;SDS011;9828;54.122;17.974;2024-02-28T14:33:00;18.80;;;9.40;;
19384;SDS011;9828;54.122;17.974;2024-02-28T14:38:23;19.87;;;9.57;;
19384;SDS011;9828;54.122;17.974;2024-02-28T14:43:45;12.90;;;7.60;;
19384;SDS011;9828;54.122;17.974;2024-02-28T14:49:10;16.90;;;8.77;;
19384;SDS011;9828;54.122;17.974;2024-02-28T14:54:34;18.50;;;9.10;;
19384;SDS011;9828;54.122;17.974;2024-02-28T14:59:57;12.87;;;9.63;;
19384;SDS011;9828;54.122;17.974;2024-02-28T15:05:22;18.20;;;10.67;;
19384;SDS011;9828;54.122;17.974;2024-02-28T15:10:48;18.10;;;10.17;;
19384;SDS011;9828;54.122;17.974;2024-02-28T15:16:11;18.37;;;11.70;;
19384;SDS011;9828;54.122;17.974;2024-02-28T15:21:35;21.10;;;13.03;;
19384;SDS011;9828;54.122;17.974;2024-02-28T15:27:00;18.63;;;11.40;;
19384;SDS011;9828;54.122;17.974;2024-02-28T15:32:22;21.53;;;13.53;;
19384;SDS011;9828;54.122;17.974;2024-02-28T15:37:44;19.87;;;11.87;;
19384;SDS011;9828;54.122;17.974;2024-02-28T15:43:08;20.90;;;13.83;;
19384;SDS011;9828;54.122;17.974;2024-02-28T15:48:35;23.80;;;15.10;;
19384;SDS011;9828;54.122;17.974;2024-02-28T15:53:56;21.10;;;14.33;;
19384;SDS011;9828;54.122;17.974;2024-02-28T15:59:22;21.43;;;13.27;;
19384;SDS011;9828;54.122;17.974;2024-02-28T16:04:46;24.67;;;14.20;;
19384;SDS011;9828;54.122;17.974;2024-02-28T16:10:09;26.13;;;14.00;;
19384;SDS011;9828;54.122;17.974;2024-02-28T16:15:31;14.57;;;9.40;;
19384;SDS011;9828;54.122;17.974;2024-02-28T16:20:57;15.60;;;9.60;;
19384;SDS011;9828;54.122;17.974;2024-02-28T16:26:22;12.67;;;8.07;;
19384;SDS011;9828;54.122;17.974;2024-02-28T16:31:44;13.17;;;8.80;;
19384;SDS011;9828;54.122;17.974;2024-02-28T16:37:11;13.63;;;9.43;;
19384;SDS011;9828;54.122;17.974;2024-02-28T16:42:35;13.13;;;7.87;;
19384;SDS011;9828;54.122;17.974;2024-02-28T16:47:56;14.93;;;9.77;;
19384;SDS011;9828;54.122;17.974;2024-02-28T16:53:18;25.60;;;14.90;;
19384;SDS011;9828;54.122;17.974;2024-02-28T16:58:39;23.50;;;12.90;;
19384;SDS011;9828;54.122;17.974;2024-02-28T17:04:02;12.90;;;8.33;;
19384;SDS011;9828;54.122;17.974;2024-02-28T17:09:24;26.53;;;11.80;;
19384;SDS011;9828;54.122;17.974;2024-02-28T17:14:45;15.97;;;8.80;;
19384;SDS011;9828;54.122;17.974;2024-02-28T17:20:07;16.93;;;10.37;;
19384;SDS011;9828;54.122;17.974;2024-02-28T17:25:29;12.70;;;9.90;;
19384;SDS011;9828;54.122;17.974;2024-02-28T17:30:51;13.33;;;10.10;;
19384;SDS011;9828;54.122;17.974;2024-02-28T17:36:12;15.53;;;11.37;;
19384;SDS011;9828;54.122;17.974;2024-02-28T17:41:35;14.83;;;10.00;;
19384;SDS011;9828;54.122;17.974;2024-02-28T17:46:56;14.60;;;10.07;;
19384;SDS011;9828;54.122;17.974;2024-02-28T17:52:17;13.50;;;9.80;;
19384;SDS011;9828;54.122;17.974;2024-02-28T17:57:42;15.53;;;10.00;;
19384;SDS011;9828;54.122;17.974;2024-02-28T18:03:03;26.90;;;22.30;;
19384;SDS011;9828;54.122;17.974;2024-02-28T18:08:25;36.33;;;24.00;;
19384;SDS011;9828;54.122;17.974;2024-02-28T18:13:51;21.97;;;14.23;;
19384;SDS011;9828;54.122;17.974;2024-02-28T18:19:13;22.17;;;13.03;;
19384;SDS011;9828;54.122;17.974;2024-02-28T18:24:37;19.20;;;12.10;;
19384;SDS011;9828;54.122;17.974;2024-02-28T18:29:59;17.23;;;11.80;;
19384;SDS011;9828;54.122;17.974;2024-02-28T18:35:20;29.87;;;17.53;;
19384;SDS011;9828;54.122;17.974;2024-02-28T18:40:42;20.47;;;13.03;;
19384;SDS011;9828;54.122;17.974;2024-02-28T18:46:04;13.33;;;9.60;;
19384;SDS011;9828;54.122;17.974;2024-02-28T18:51:27;20.60;;;11.27;;
19384;SDS011;9828;54.122;17.974;2024-02-28T18:56:48;20.60;;;13.13;;
19384;SDS011;9828;54.122;17.974;2024-02-28T19:02:11;23.10;;;14.47;;
19384;SDS011;9828;54.122;17.974;2024-02-28T19:07:35;17.97;;;11.27;;
19384;SDS011;9828;54.122;17.974;2024-02-28T19:12:56;21.97;;;13.00;;
19384;SDS011;9828;54.122;17.974;2024-02-28T19:18:18;21.30;;;13.17;;
19384;SDS011;9828;54.122;17.974;2024-02-28T19:23:39;20.87;;;12.67;;
19384;SDS011;9828;54.122;17.974;2024-02-28T19:29:05;24.40;;;14.03;;
19384;SDS011;9828;54.122;17.974;2024-02-28T19:34:29;19.67;;;12.37;;
19384;SDS011;9828;54.122;17.974;2024-02-28T19:39:50;20.87;;;13.67;;
19384;SDS011;9828;54.122;17.974;2024-02-28T19:45:17;23.07;;;13.13;;
19384;SDS011;9828;54.122;17.974;2024-02-28T19:50:39;19.07;;;11.33;;
19384;SDS011;9828;54.122;17.974;2024-02-28T19:56:02;17.77;;;10.77;;
19384;SDS011;9828;54.122;17.974;2024-02-28T20:01:23;17.87;;;11.90;;
19384;SDS011;9828;54.122;17.974;2024-02-28T20:06:45;19.80;;;11.37;;
19384;SDS011;9828;54.122;17.974;2024-02-28T20:12:06;18.80;;;11.20;;
19384;SDS011;9828;54.122;17.974;2024-02-28T20:17:28;15.53;;;10.33;;
19384;SDS011;9828;54.122;17.974;2024-02-28T20:22:49;12.53;;;7.90;;
19384;SDS011;9828;54.122;17.974;2024-02-28T20:28:11;12.30;;;7.63;;
19384;SDS011;9828;54.122;17.974;2024-02-28T20:33:32;10.40;;;7.33;;
19384;SDS011;9828;54.122;17.974;2024-02-28T20:38:54;9.50;;;6.13;;
19384;SDS011;9828;54.122;17.974;2024-02-28T20:44:17;7.47;;;5.40;;
19384;SDS011;9828;54.122;17.974;2024-02-28T20:49:38;10.37;;;6.53;;
19384;SDS011;9828;54.122;17.974;2024-02-28T20:55:00;5.80;;;4.30;;
19384;SDS011;9828;54.122;17.974;2024-02-28T21:00:25;5.40;;;4.03;;
19384;SDS011;9828;54.122;17.974;2024-02-28T21:05:47;8.77;;;5.00;;
19384;SDS011;9828;54.122;17.974;2024-02-28T21:11:09;8.13;;;5.13;;
19384;SDS011;9828;54.122;17.974;2024-02-28T21:16:30;7.63;;;5.20;;
19384;SDS011;9828;54.122;17.974;2024-02-28T21:21:51;6.43;;;4.90;;
19384;SDS011;9828;54.122;17.974;2024-02-28T21:27:13;6.93;;;4.97;;
19384;SDS011;9828;54.122;17.974;2024-02-28T21:32:35;7.70;;;5.67;;
19384;SDS011;9828;54.122;17.974;2024-02-28T21:37:59;9.67;;;7.43;;
19384;SDS011;9828;54.122;17.974;2024-02-28T21:43:22;9.47;;;6.93;;
19384;SDS011;9828;54.122;17.974;2024-02-28T21:48:44;9.27;;;6.53;;
19384;SDS011;9828;54.122;17.974;2024-02-28T21:54:06;9.90;;;5.97;;
19384;SDS011;9828;54.122;17.974;2024-02-28T21:59:29;10.77;;;7.30;;
19384;SDS011;9828;54.122;17.974;2024-02-28T22:04:51;10.47;;;6.63;;
19384;SDS011;9828;54.122;17.974;2024-02-28T22:10:12;9.13;;;6.27;;
19384;SDS011;9828;54.122;17.974;2024-02-28T22:15:33;12.30;;;6.63;;
19384;SDS011;9828;54.122;17.974;2024-02-28T22:20:55;19.37;;;10.07;;
19384;SDS011;9828;54.122;17.974;2024-02-28T22:26:17;17.10;;;10.20;;
19384;SDS011;9828;54.122;17.974;2024-02-28T22:31:41;11.70;;;6.67;;
19384;SDS011;9828;54.122;17.974;2024-02-28T22:37:03;9.27;;;6.13;;
19384;SDS011;9828;54.122;17.974;2024-02-28T22:42:24;10.13;;;6.23;;
19384;SDS011;9828;54.122;17.974;2024-02-28T22:47:47;10.40;;;7.00;;
19384;SDS011;9828;54.122;17.974;2024-02-28T22:53:08;12.40;;;7.50;;
19384;SDS011;9828;54.122;17.974;2024-02-28T22:58:29;8.43;;;6.00;;
19384;SDS011;9828;54.122;17.974;2024-02-28T23:03:51;7.90;;;5.63;;
19384;SDS011;9828;54.122;17.974;2024-02-28T23:09:13;10.30;;;6.57;;
19384;SDS011;9828;54.122;17.974;2024-02-28T23:14:35;10.63;;;6.83;;
19384;SDS011;9828;54.122;17.974;2024-02-28T23:19:56;9.77;;;6.67;;
19384;SDS011;9828;54.122;17.974;2024-02-28T23:25:21;7.77;;;5.57;;
19384;SDS011;9828;54.122;17.974;2024-02-28T23:30:42;7.67;;;5.13;;
19384;SDS011;9828;54.122;17.974;2024-02-28T23:36:04;8.63;;;6.17;;
19384;SDS011;9828;54.122;17.974;2024-02-28T23:41:26;9.87;;;6.20;;
19384;SDS011;9828;54.122;17.974;2024-02-28T23:46:49;10.50;;;6.97;;
19384;SDS011;9828;54.122;17.974;2024-02-28T23:52:12;10.73;;;7.13;;
19384;SDS011;9828;54.122;17.974;2024-02-28T23:57:33;9.93;;;6.80;;
